createdAt,value
2018-11-06T00:00:50.328Z,82.00
2018-11-06T00:03:37.379Z,82.09
2018-11-06T00:06:06.361Z,82.01
2018-11-06T00:08:35.255Z,82.13
2018-11-06T00:11:04.197Z,82.54
2018-11-06T00:13:33.088Z,83.18
2018-11-06T00:16:02.010Z,83.59
2018-11-06T00:18:30.933Z,83.54
2018-11-06T00:20:59.826Z,83.94
2018-11-06T00:23:28.803Z,84.13
2018-11-06T00:25:57.705Z,84.12
2018-11-06T00:28:26.615Z,83.87
2018-11-06T00:30:55.538Z,84.29
2018-11-06T00:33:24.496Z,84.85
2018-11-06T00:35:53.377Z,84.63
2018-11-06T00:38:22.314Z,84.58
2018-11-06T00:40:51.220Z,85.33
2018-11-06T00:43:20.144Z,85.80
2018-11-06T00:45:49.091Z,84.81
2018-11-06T00:48:18.019Z,85.63
2018-11-06T00:50:46.912Z,85.45
2018-11-06T00:53:15.877Z,85.31
2018-11-06T00:55:44.823Z,85.30
2018-11-06T00:58:13.688Z,85.18
2018-11-06T01:00:42.628Z,85.12
2018-11-06T01:03:11.572Z,84.97
2018-11-06T01:05:40.473Z,85.05
2018-11-06T01:08:09.438Z,85.04
2018-11-06T01:10:38.346Z,84.84
2018-11-06T01:13:07.294Z,84.76
2018-11-06T01:15:36.194Z,84.58
2018-11-06T01:18:05.408Z,84.75
2018-11-06T01:20:34.344Z,84.81
2018-11-06T01:23:03.290Z,85.01
2018-11-06T01:25:32.221Z,85.00
2018-11-06T01:28:01.133Z,84.57
2018-11-06T01:30:30.018Z,82.98
2018-11-06T01:32:58.937Z,84.37
2018-11-06T01:35:27.858Z,84.70
2018-11-06T01:37:56.779Z,84.88
2018-11-06T01:40:25.691Z,84.79
2018-11-06T01:42:54.607Z,84.87
2018-11-06T01:45:23.523Z,85.03
2018-11-06T01:47:52.524Z,84.42
2018-11-06T01:50:21.363Z,84.55
2018-11-06T01:52:50.308Z,84.18
2018-11-06T01:55:19.222Z,84.28
2018-11-06T01:57:48.137Z,84.16
2018-11-06T02:00:18.386Z,84.27
2018-11-06T02:02:47.583Z,84.15
2018-11-06T02:05:17.589Z,84.38
2018-11-06T02:07:47.741Z,84.89
2018-11-06T02:10:17.113Z,85.18
2018-11-06T02:12:46.770Z,84.82
2018-11-06T02:15:15.662Z,84.57
2018-11-06T02:17:45.225Z,85.20
2018-11-06T02:20:14.935Z,85.18
2018-11-06T02:22:44.649Z,85.28
2018-11-06T02:25:14.043Z,85.33
2018-11-06T02:27:43.057Z,83.98
2018-11-06T02:30:13.673Z,82.83
2018-11-06T02:32:43.480Z,84.00
2018-11-06T02:35:12.357Z,84.30
2018-11-06T02:37:41.277Z,84.18
2018-11-06T02:40:11.870Z,84.42
2018-11-06T02:42:41.285Z,84.36
2018-11-06T02:45:11.017Z,84.39
2018-11-06T02:47:40.382Z,84.54
2018-11-06T02:50:10.062Z,84.56
2018-11-06T02:52:39.012Z,84.37
2018-11-06T02:55:08.437Z,84.64
2018-11-06T02:57:37.445Z,84.42
2018-11-06T03:00:08.302Z,84.48
2018-11-06T03:02:37.211Z,84.54
2018-11-06T03:05:06.811Z,84.38
2018-11-06T03:07:35.675Z,84.36
2018-11-06T03:10:04.737Z,84.74
2018-11-06T03:12:33.580Z,84.59
2018-11-06T03:15:02.545Z,84.74
2018-11-06T03:17:31.460Z,84.77
2018-11-06T03:20:00.414Z,84.99
2018-11-06T03:22:29.344Z,84.85
2018-11-06T03:24:58.317Z,84.54
2018-11-06T03:27:27.234Z,84.55
2018-11-06T03:29:56.171Z,84.55
2018-11-06T03:32:25.094Z,84.38
2018-11-06T03:34:53.998Z,84.37
2018-11-06T03:37:22.941Z,84.48
2018-11-06T03:39:51.883Z,84.33
2018-11-06T03:42:21.032Z,84.36
2018-11-06T03:44:49.937Z,84.56
2018-11-06T03:47:18.873Z,84.41
2018-11-06T03:49:47.836Z,84.26
2018-11-06T03:52:16.765Z,84.41
2018-11-06T03:54:45.694Z,84.22
2018-11-06T03:57:14.620Z,84.40
2018-11-06T03:59:43.601Z,84.30
2018-11-06T04:02:12.560Z,84.34
2018-11-06T04:04:41.521Z,84.27
2018-11-06T04:07:10.420Z,84.47
2018-11-06T04:09:39.344Z,84.29
2018-11-06T04:12:08.295Z,84.37
2018-11-06T04:14:37.198Z,84.59
2018-11-06T04:17:06.143Z,84.68
2018-11-06T04:19:35.043Z,84.56
2018-11-06T04:22:03.976Z,84.74
2018-11-06T04:24:32.870Z,84.78
2018-11-06T04:27:01.839Z,84.90
2018-11-06T04:29:30.751Z,84.61
2018-11-06T04:31:59.672Z,84.65
2018-11-06T04:34:28.585Z,84.65
2018-11-06T04:36:57.519Z,84.59
2018-11-06T04:39:26.435Z,84.48
2018-11-06T04:41:55.352Z,84.41
2018-11-06T04:44:24.272Z,84.39
2018-11-06T04:46:53.176Z,84.41
2018-11-06T04:49:22.436Z,84.23
2018-11-06T04:51:52.476Z,84.39
2018-11-06T04:54:21.408Z,84.33
2018-11-06T04:56:50.287Z,84.20
2018-11-06T04:59:19.220Z,84.35
2018-11-06T05:01:48.144Z,84.21
2018-11-06T05:04:17.036Z,84.33
2018-11-06T05:06:45.972Z,84.29
2018-11-06T05:09:14.875Z,84.34
2018-11-06T05:11:43.793Z,84.21
2018-11-06T05:14:12.838Z,84.39
2018-11-06T05:16:41.725Z,84.28
2018-11-06T05:19:10.642Z,84.18
2018-11-06T05:21:39.600Z,84.01
2018-11-06T05:24:08.538Z,84.05
2018-11-06T05:26:37.484Z,84.21
2018-11-06T05:29:06.369Z,84.12
2018-11-06T05:31:35.294Z,83.95
2018-11-06T05:34:04.189Z,84.10
2018-11-06T05:36:33.122Z,82.99
2018-11-06T05:39:02.158Z,81.99
2018-11-06T05:41:30.986Z,83.31
2018-11-06T05:43:59.940Z,83.19
2018-11-06T05:46:28.816Z,83.09
2018-11-06T05:48:57.730Z,83.03
2018-11-06T05:51:26.721Z,83.00
2018-11-06T05:53:55.622Z,82.96
2018-11-06T05:56:24.527Z,83.16
2018-11-06T05:58:53.468Z,82.55
2018-11-06T06:01:22.375Z,82.92
2018-11-06T06:03:51.321Z,83.02
2018-11-06T06:06:20.236Z,82.92
2018-11-06T06:08:49.172Z,82.88
2018-11-06T06:11:18.197Z,83.12
2018-11-06T06:13:46.976Z,82.10
2018-11-06T06:16:15.885Z,82.70
2018-11-06T06:18:44.817Z,83.06
2018-11-06T06:21:13.738Z,82.58
2018-11-06T06:23:42.659Z,82.70
2018-11-06T06:26:11.585Z,81.74
2018-11-06T06:28:40.556Z,82.63
2018-11-06T06:31:09.480Z,82.34
2018-11-06T06:33:38.419Z,82.55
2018-11-06T06:36:07.348Z,82.54
2018-11-06T06:38:36.252Z,82.41
2018-11-06T06:41:05.298Z,82.45
2018-11-06T06:43:34.099Z,82.31
2018-11-06T06:46:03.094Z,81.74
2018-11-06T06:48:31.996Z,82.49
2018-11-06T06:51:00.930Z,82.43
2018-11-06T06:53:29.834Z,82.46
2018-11-06T06:55:58.779Z,82.36
2018-11-06T06:58:27.669Z,82.47
2018-11-06T07:00:56.630Z,82.37
2018-11-06T07:03:25.533Z,82.37
2018-11-06T07:05:54.544Z,82.53
2018-11-06T07:08:23.461Z,82.51
2018-11-06T07:10:52.387Z,82.52
2018-11-06T07:13:21.327Z,82.48
2018-11-06T07:15:50.225Z,82.37
2018-11-06T07:18:19.186Z,82.50
2018-11-06T07:20:48.064Z,82.48
2018-11-06T07:23:16.965Z,82.33
2018-11-06T07:25:45.903Z,81.99
2018-11-06T07:28:14.784Z,81.92
2018-11-06T07:30:43.706Z,82.17
2018-11-06T07:33:12.600Z,81.78
2018-11-06T07:35:41.786Z,81.42
2018-11-06T07:38:10.472Z,81.55
2018-11-06T07:40:39.468Z,79.95
2018-11-06T07:43:08.309Z,80.45
2018-11-06T07:45:37.245Z,80.41
2018-11-06T07:48:06.127Z,79.89
2018-11-06T07:50:35.193Z,79.75
2018-11-06T07:53:04.023Z,79.45
2018-11-06T07:55:32.969Z,79.49
2018-11-06T07:58:01.869Z,79.27
2018-11-06T08:00:30.829Z,79.12
2018-11-06T08:02:59.758Z,79.29
2018-11-06T08:05:28.672Z,78.96
2018-11-06T08:07:57.573Z,78.79
2018-11-06T08:10:26.552Z,78.81
2018-11-06T08:12:55.520Z,78.36
2018-11-06T08:15:24.444Z,78.32
2018-11-06T08:17:53.457Z,78.01
2018-11-06T08:20:22.300Z,76.29
2018-11-06T08:22:51.181Z,77.09
2018-11-06T08:25:20.075Z,76.86
2018-11-06T08:27:49.112Z,76.63
2018-11-06T08:30:17.870Z,76.40
2018-11-06T08:32:47.042Z,76.26
2018-11-06T08:35:16.905Z,76.11
2018-11-06T08:37:45.807Z,74.10
2018-11-06T08:40:16.019Z,74.81
2018-11-06T08:42:44.945Z,73.30
2018-11-06T08:45:14.933Z,72.58
2018-11-06T08:47:44.439Z,71.74
2018-11-06T08:50:14.765Z,72.94
2018-11-06T08:52:43.773Z,73.33
2018-11-06T08:55:13.926Z,73.02
2018-11-06T08:57:43.580Z,72.66
2018-11-06T09:00:14.587Z,72.36
2018-11-06T09:02:44.827Z,71.94
2018-11-06T09:05:15.418Z,71.84
2018-11-06T09:07:45.221Z,71.55
2018-11-06T09:10:15.111Z,71.52
2018-11-06T09:12:44.087Z,71.29
2018-11-06T09:15:14.690Z,70.94
2018-11-06T09:17:43.554Z,70.47
2018-11-06T09:20:13.746Z,70.21
2018-11-06T09:22:42.708Z,69.50
2018-11-06T09:25:12.891Z,67.66
2018-11-06T09:27:42.547Z,67.60
2018-11-06T09:30:16.393Z,67.16
2018-11-06T09:32:45.349Z,66.66
2018-11-06T09:35:14.818Z,65.82
2018-11-06T09:37:44.158Z,65.84
2018-11-06T09:40:17.241Z,63.24
2018-11-06T09:42:46.209Z,60.98
2018-11-06T09:45:15.214Z,59.48
2018-11-06T09:47:44.190Z,59.05
2018-11-06T09:50:14.450Z,59.10
2018-11-06T09:52:44.128Z,58.85
2018-11-06T09:55:13.373Z,59.11
2018-11-06T09:57:42.391Z,58.69
2018-11-06T10:00:13.412Z,58.23
2018-11-06T10:02:42.416Z,59.33
2018-11-06T10:05:12.194Z,59.38
2018-11-06T10:07:41.148Z,59.14
2018-11-06T10:10:12.078Z,57.89
2018-11-06T10:12:41.419Z,57.19
2018-11-06T10:15:12.361Z,57.39
2018-11-06T10:17:42.358Z,57.42
2018-11-06T10:20:12.108Z,57.12
2018-11-06T10:22:41.081Z,56.54
2018-11-06T10:25:10.076Z,56.37
2018-11-06T10:27:39.597Z,55.26
2018-11-06T10:30:10.738Z,51.78
2018-11-06T10:32:39.649Z,47.44
2018-11-06T10:35:09.351Z,43.94
2018-11-06T10:37:38.342Z,41.99
2018-11-06T10:40:13.480Z,41.21
2018-11-06T10:42:42.867Z,39.15
2018-11-06T10:45:11.816Z,35.68
2018-11-06T10:47:40.803Z,36.14
2018-11-06T10:50:11.389Z,35.66
2018-11-06T10:52:40.649Z,35.39
2018-11-06T10:55:09.884Z,33.65
2018-11-06T10:57:39.811Z,32.64
2018-11-06T11:00:29.358Z,31.56
2018-11-06T11:03:15.853Z,29.63
2018-11-06T11:05:44.774Z,30.89
2018-11-06T11:08:13.692Z,30.15
2018-11-06T11:10:42.629Z,29.61
2018-11-06T11:13:11.534Z,30.47
2018-11-06T11:15:40.458Z,30.23
2018-11-06T11:18:09.435Z,30.63
2018-11-06T11:20:38.423Z,30.54
2018-11-06T11:23:07.427Z,31.14
2018-11-06T11:25:36.401Z,34.01
2018-11-06T11:28:05.326Z,34.67
2018-11-06T11:30:34.222Z,35.41
2018-11-06T11:33:03.171Z,37.05
2018-11-06T11:35:32.085Z,37.21
2018-11-06T11:38:01.019Z,38.38
2018-11-06T11:40:29.915Z,39.91
2018-11-06T11:42:58.846Z,41.54
2018-11-06T11:45:27.780Z,42.16
2018-11-06T11:47:56.688Z,42.79
2018-11-06T11:50:25.611Z,43.41
2018-11-06T11:52:54.521Z,43.53
2018-11-06T11:55:23.439Z,43.24
2018-11-06T11:57:52.378Z,43.97
2018-11-06T12:00:21.700Z,44.35
2018-11-06T12:02:50.641Z,43.78
2018-11-06T12:05:19.541Z,43.19
2018-11-06T12:07:48.432Z,43.27
2018-11-06T12:10:17.345Z,43.98
2018-11-06T12:12:46.209Z,42.88
2018-11-06T12:15:16.479Z,42.95
2018-11-06T12:17:46.160Z,43.39
2018-11-06T12:20:15.563Z,42.33
2018-11-06T12:22:44.461Z,43.49
2018-11-06T12:25:14.085Z,43.62
2018-11-06T12:27:42.983Z,43.29
2018-11-06T12:30:16.771Z,43.84
2018-11-06T12:32:45.850Z,43.40
2018-11-06T12:35:14.968Z,43.65
2018-11-06T12:37:43.905Z,44.43
2018-11-06T12:40:13.579Z,44.36
2018-11-06T12:42:42.885Z,43.79
2018-11-06T12:45:13.125Z,43.08
2018-11-06T12:47:42.414Z,42.57
2018-11-06T12:50:11.414Z,42.66
2018-11-06T12:52:40.733Z,42.80
2018-11-06T12:55:11.190Z,43.23
2018-11-06T12:57:40.169Z,43.64
2018-11-06T13:00:12.319Z,42.19
2018-11-06T13:02:41.251Z,42.83
2018-11-06T13:05:10.765Z,42.78
2018-11-06T13:07:41.249Z,43.07
2018-11-06T13:10:11.287Z,43.44
2018-11-06T13:12:40.701Z,44.04
2018-11-06T13:15:09.852Z,43.96
2018-11-06T13:17:38.984Z,43.86
2018-11-06T13:20:09.957Z,44.29
2018-11-06T13:22:40.062Z,44.19
2018-11-06T13:25:09.228Z,43.50
2018-11-06T13:27:39.360Z,43.29
2018-11-06T13:30:10.770Z,43.48
2018-11-06T13:32:40.808Z,43.47
2018-11-06T13:35:10.316Z,43.64
2018-11-06T13:37:39.678Z,43.74
2018-11-06T13:40:10.901Z,44.09
2018-11-06T13:42:39.968Z,44.59
2018-11-06T13:45:11.637Z,44.45
2018-11-06T13:47:40.433Z,45.07
2018-11-06T13:50:09.355Z,45.63
2018-11-06T13:52:38.553Z,45.76
2018-11-06T13:55:08.689Z,45.81
2018-11-06T13:57:37.601Z,46.00
2018-11-06T14:00:10.338Z,46.46
2018-11-06T14:02:39.261Z,46.63
2018-11-06T14:05:08.172Z,46.70
2018-11-06T14:07:37.095Z,46.83
2018-11-06T14:10:06.345Z,46.56
2018-11-06T14:12:35.281Z,47.22
2018-11-06T14:15:04.181Z,47.06
2018-11-06T14:17:33.071Z,47.93
2018-11-06T14:20:02.002Z,48.27
2018-11-06T14:22:31.196Z,48.41
2018-11-06T14:25:00.104Z,48.24
2018-11-06T14:27:29.161Z,48.36
2018-11-06T14:29:57.976Z,48.65
2018-11-06T14:32:26.863Z,49.23
2018-11-06T14:34:55.843Z,50.17
2018-11-06T14:37:25.110Z,49.87
2018-11-06T14:39:54.026Z,50.60
2018-11-06T14:42:22.981Z,50.53
2018-11-06T14:44:51.818Z,51.52
2018-11-06T14:47:20.723Z,51.54
2018-11-06T14:49:49.639Z,52.27
2018-11-06T14:52:18.556Z,51.27
2018-11-06T14:54:47.472Z,52.57
2018-11-06T14:57:16.389Z,53.27
2018-11-06T14:59:45.331Z,53.05
2018-11-06T15:02:14.217Z,53.50
2018-11-06T15:04:43.137Z,53.72
2018-11-06T15:07:12.064Z,54.01
2018-11-06T15:09:41.013Z,54.45
2018-11-06T15:12:09.956Z,54.68
2018-11-06T15:14:38.920Z,55.34
2018-11-06T15:17:07.878Z,55.06
2018-11-06T15:19:37.010Z,54.62
2018-11-06T15:22:05.942Z,55.41
2018-11-06T15:24:34.854Z,55.38
2018-11-06T15:27:03.782Z,56.22
2018-11-06T15:29:32.716Z,56.51
2018-11-06T15:32:01.657Z,56.31
2018-11-06T15:34:30.596Z,57.22
2018-11-06T15:36:59.557Z,57.41
2018-11-06T15:39:28.605Z,57.54
2018-11-06T15:41:57.640Z,57.58
2018-11-06T15:44:26.383Z,58.43
2018-11-06T15:46:55.330Z,58.05
2018-11-06T15:49:24.294Z,59.15
2018-11-06T15:51:53.213Z,59.28
2018-11-06T15:54:22.197Z,59.60
2018-11-06T15:56:51.055Z,59.63
2018-11-06T15:59:20.033Z,60.78
2018-11-06T16:01:49.070Z,61.10
2018-11-06T16:04:17.970Z,61.41
2018-11-06T16:06:46.908Z,61.87
2018-11-06T16:09:15.804Z,60.91
2018-11-06T16:11:45.372Z,61.58
2018-11-06T16:14:14.832Z,61.97
2018-11-06T16:16:44.304Z,62.15
2018-11-06T16:19:13.231Z,62.76
2018-11-06T16:21:42.200Z,62.63
2018-11-06T16:24:11.168Z,62.99
2018-11-06T16:26:40.067Z,63.23
2018-11-06T16:29:09.025Z,63.52
2018-11-06T16:31:38.006Z,63.39
2018-11-06T16:34:06.952Z,63.77
2018-11-06T16:36:35.881Z,63.79
2018-11-06T16:39:07.737Z,63.90
2018-11-06T16:41:36.775Z,63.93
2018-11-06T16:44:05.667Z,64.11
2018-11-06T16:46:34.539Z,64.02
2018-11-06T16:49:03.472Z,64.33
2018-11-06T16:51:32.400Z,63.78
2018-11-06T16:54:01.339Z,64.29
2018-11-06T16:56:30.291Z,64.68
2018-11-06T16:58:59.241Z,64.87
2018-11-06T17:01:28.319Z,65.03
2018-11-06T17:03:57.276Z,65.35
2018-11-06T17:06:35.355Z,65.28
2018-11-06T17:09:06.198Z,65.71
2018-11-06T17:11:35.088Z,65.84
2018-11-06T17:14:04.049Z,66.28
2018-11-06T17:16:33.228Z,66.32
2018-11-06T17:19:02.180Z,66.47
2018-11-06T17:21:31.111Z,66.98
2018-11-06T17:24:00.059Z,65.66
2018-11-06T17:26:29.060Z,65.05
2018-11-06T17:28:58.015Z,65.73
2018-11-06T17:31:27.112Z,65.80
2018-11-06T17:33:56.052Z,65.57
2018-11-06T17:36:24.969Z,65.60
2018-11-06T17:38:53.911Z,65.34
2018-11-06T17:41:22.873Z,64.80
2018-11-06T17:43:51.838Z,65.35
2018-11-06T17:46:20.855Z,65.29
2018-11-06T17:48:50.123Z,65.10
2018-11-06T17:51:19.059Z,65.26
2018-11-06T17:53:48.013Z,64.44
2018-11-06T17:56:17.014Z,65.15
2018-11-06T17:58:46.119Z,65.13
2018-11-06T18:01:15.096Z,65.26
2018-11-06T18:03:44.048Z,65.46
2018-11-06T18:06:13.014Z,65.75
2018-11-06T18:08:41.948Z,65.97
2018-11-06T18:11:10.880Z,66.29
2018-11-06T18:13:39.947Z,66.34
2018-11-06T18:16:08.900Z,66.91
2018-11-06T18:18:37.885Z,66.65
2018-11-06T18:21:06.924Z,66.95
2018-11-06T18:23:35.850Z,67.09
2018-11-06T18:26:04.771Z,67.49
2018-11-06T18:28:33.894Z,67.61
2018-11-06T18:31:02.877Z,67.66
2018-11-06T18:33:31.875Z,67.73
2018-11-06T18:36:00.823Z,67.91
2018-11-06T18:38:29.895Z,67.76
2018-11-06T18:40:58.740Z,67.95
2018-11-06T18:43:27.706Z,67.61
2018-11-06T18:45:56.612Z,67.88
2018-11-06T18:48:25.564Z,68.14
2018-11-06T18:50:54.502Z,68.22
2018-11-06T18:53:23.480Z,68.47
2018-11-06T18:55:52.394Z,68.41
2018-11-06T18:58:21.433Z,68.58
2018-11-06T19:00:50.334Z,68.96
2018-11-06T19:03:19.268Z,68.87
2018-11-06T19:05:48.212Z,68.53
2018-11-06T19:08:17.226Z,68.96
2018-11-06T19:10:46.278Z,69.08
2018-11-06T19:13:15.164Z,69.19
2018-11-06T19:15:44.103Z,69.30
2018-11-06T19:18:13.048Z,69.09
2018-11-06T19:20:41.964Z,69.25
2018-11-06T19:23:10.942Z,69.45
2018-11-06T19:25:39.852Z,69.51
2018-11-06T19:28:08.817Z,69.85
2018-11-06T19:30:37.828Z,69.53
2018-11-06T19:33:06.936Z,69.67
2018-11-06T19:35:35.905Z,69.92
2018-11-06T19:38:04.889Z,69.84
2018-11-06T19:40:33.919Z,69.93
2018-11-06T19:43:02.939Z,69.75
2018-11-06T19:45:31.765Z,70.39
2018-11-06T19:48:00.703Z,70.43
2018-11-06T19:50:29.623Z,70.95
2018-11-06T19:52:58.743Z,70.93
2018-11-06T19:55:27.790Z,70.74
2018-11-06T19:57:56.746Z,70.75
2018-11-06T20:00:25.701Z,70.55
2018-11-06T20:02:54.950Z,70.56
2018-11-06T20:05:23.964Z,70.52
2018-11-06T20:07:53.284Z,70.18
2018-11-06T20:10:23.760Z,70.19
2018-11-06T20:12:53.838Z,70.23
2018-11-06T20:15:22.924Z,69.94
2018-11-06T20:17:51.984Z,69.47
2018-11-06T20:20:25.132Z,69.17
2018-11-06T20:22:54.125Z,68.90
2018-11-06T20:25:23.205Z,69.00
2018-11-06T20:27:52.190Z,68.86
2018-11-06T20:30:22.490Z,68.57
2018-11-06T20:32:51.399Z,68.50
2018-11-06T20:35:20.499Z,68.58
2018-11-06T20:37:49.500Z,68.63
2018-11-06T20:40:19.837Z,68.58
2018-11-06T20:42:48.955Z,68.35
2018-11-06T20:45:18.896Z,68.37
2018-11-06T20:47:47.838Z,68.37
2018-11-06T20:50:17.990Z,67.98
2018-11-06T20:52:47.252Z,68.77
2018-11-06T20:55:16.926Z,68.82
2018-11-06T20:57:46.155Z,68.87
2018-11-06T21:00:29.080Z,69.00
2018-11-06T21:03:02.053Z,69.21
2018-11-06T21:05:30.972Z,69.09
2018-11-06T21:07:59.963Z,69.47
2018-11-06T21:10:30.293Z,69.47
2018-11-06T21:12:59.311Z,69.24
2018-11-06T21:15:28.263Z,69.49
2018-11-06T21:17:57.413Z,69.97
2018-11-06T21:20:26.679Z,70.00
2018-11-06T21:22:55.560Z,70.18
2018-11-06T21:25:24.842Z,70.26
2018-11-06T21:27:53.672Z,70.60
2018-11-06T21:30:22.652Z,70.90
2018-11-06T21:32:52.627Z,70.73
2018-11-06T21:35:21.612Z,70.90
2018-11-06T21:37:50.638Z,70.31
2018-11-06T21:40:20.853Z,71.06
2018-11-06T21:42:50.131Z,71.11
2018-11-06T21:45:19.441Z,71.13
2018-11-06T21:47:49.241Z,70.81
2018-11-06T21:50:18.683Z,70.70
2018-11-06T21:52:47.632Z,71.03
2018-11-06T21:55:17.758Z,71.52
2018-11-06T21:57:46.786Z,70.62
2018-11-06T22:00:19.856Z,71.54
2018-11-06T22:02:48.748Z,71.38
2018-11-06T22:05:18.953Z,71.11
2018-11-06T22:07:48.320Z,70.96
2018-11-06T22:10:18.616Z,71.00
2018-11-06T22:12:47.622Z,71.28
2018-11-06T22:15:17.602Z,71.32
2018-11-06T22:17:46.653Z,71.32
2018-11-06T22:20:16.791Z,71.51
2018-11-06T22:22:46.339Z,71.33
2018-11-06T22:25:15.286Z,71.28
2018-11-06T22:27:44.527Z,71.12
2018-11-06T22:30:14.628Z,71.18
2018-11-06T22:32:44.258Z,71.00
2018-11-06T22:35:14.366Z,70.36
2018-11-06T22:37:43.383Z,71.11
2018-11-06T22:40:13.571Z,70.84
2018-11-06T22:42:42.540Z,70.78
2018-11-06T22:45:12.995Z,70.89
2018-11-06T22:47:42.061Z,70.75
2018-11-06T22:50:12.830Z,70.63
2018-11-06T22:52:42.230Z,70.32
2018-11-06T22:55:11.192Z,69.17
2018-11-06T22:57:40.132Z,69.77
2018-11-06T23:00:18.029Z,69.95
2018-11-06T23:02:46.952Z,69.79
2018-11-06T23:05:15.910Z,69.82
2018-11-06T23:08:02.487Z,69.51
2018-11-06T23:10:31.445Z,69.59
2018-11-06T23:13:00.351Z,69.58
2018-11-06T23:15:29.311Z,69.29
2018-11-06T23:17:58.289Z,69.20
2018-11-06T23:20:27.277Z,69.12
2018-11-06T23:22:56.162Z,68.97
2018-11-06T23:25:25.084Z,69.11
2018-11-06T23:27:54.024Z,68.84
2018-11-06T23:30:22.939Z,68.50
2018-11-06T23:32:51.884Z,68.77
2018-11-06T23:35:20.813Z,68.98
2018-11-06T23:37:49.783Z,68.64
2018-11-06T23:40:18.708Z,68.68
2018-11-06T23:42:47.651Z,68.93
2018-11-06T23:45:16.585Z,69.33
2018-11-06T23:47:45.528Z,69.52
2018-11-06T23:50:14.488Z,69.47
2018-11-06T23:52:43.399Z,69.42
2018-11-06T23:55:12.399Z,69.79
2018-11-06T23:57:47.776Z,70.08
